Time,TemperatureF,DewpointF,PressureIn,WindDirection,WindDirectionDegrees,WindSpeedMPH,WindSpeedGustMPH,Humidity,HourlyPrecipIn,Conditions,Clouds,dailyrainin,SoftwareType,DateUTC
2013-04-28 00:05:00,58.4,52.9,30.03,NNE,25,0.0,2.0,82,0.00,,,0.00,Wunderground v.1.15,2013-04-28 04:05:00,
2013-04-28 00:15:00,58.0,53.2,30.02,SE,143,1.0,2.0,84,0.00,,,0.00,Wunderground v.1.15,2013-04-28 04:15:00,
2013-04-28 00:20:00,57.7,53.2,30.02,SW,231,0.0,3.0,85,0.00,,,0.00,Wunderground v.1.15,2013-04-28 04:20:00,
2013-04-28 00:30:00,57.2,53.7,30.01,WNW,289,1.0,2.0,88,0.00,,,0.01,Wunderground v.1.15,2013-04-28 04:30:00,
2013-04-28 00:35:00,56.8,53.3,30.01,SW,232,1.0,2.0,88,0.00,,,0.01,Wunderground v.1.15,2013-04-28 04:35:00,
2013-04-28 00:45:00,56.5,53.6,30.01,SW,231,0.0,2.0,90,0.06,,,0.02,Wunderground v.1.15,2013-04-28 04:45:00,
2013-04-28 00:55:00,56.1,53.8,30.00,East,97,0.0,2.0,92,0.00,,,0.03,Wunderground v.1.15,2013-04-28 04:55:00,
2013-04-28 01:05:00,55.9,53.9,29.99,East,94,0.0,2.0,93,0.00,,,0.03,Wunderground v.1.15,2013-04-28 05:05:00,
2013-04-28 01:15:00,55.8,53.8,29.98,WSW,252,0.0,2.0,93,0.00,,,0.03,Wunderground v.1.15,2013-04-28 05:15:00,
2013-04-28 01:25:00,55.7,54.0,29.98,WNW,294,0.0,2.0,94,0.00,,,0.04,Wunderground v.1.15,2013-04-28 05:25:00,
2013-04-28 01:30:00,55.6,53.9,29.98,SW,222,0.0,2.0,94,0.00,,,0.04,Wunderground v.1.15,2013-04-28 05:30:00,
2013-04-28 01:35:00,55.6,53.9,29.97,WSW,249,0.0,2.0,94,0.00,,,0.04,Wunderground v.1.15,2013-04-28 05:35:00,
2013-04-28 01:45:00,55.6,54.2,29.97,SW,226,0.0,2.0,95,0.00,,,0.04,Wunderground v.1.15,2013-04-28 05:45:00,
2013-04-28 01:50:00,55.6,54.2,29.97,SW,231,0.0,2.0,95,0.00,,,0.04,Wunderground v.1.15,2013-04-28 05:50:00,
2013-04-28 02:00:00,55.6,54.2,29.96,WNW,288,1.0,2.0,95,0.00,,,0.04,Wunderground v.1.15,2013-04-28 06:00:00,
2013-04-28 02:05:00,55.7,54.3,29.96,NNW,335,0.0,2.0,95,0.00,,,0.04,Wunderground v.1.15,2013-04-28 06:05:00,
2013-04-28 02:10:00,55.7,54.3,29.96,NNE,20,0.0,2.0,95,0.00,,,0.04,Wunderground v.1.15,2013-04-28 06:10:00,
2013-04-28 02:15:00,55.8,54.4,29.95,SW,227,0.0,2.0,95,0.00,,,0.04,Wunderground v.1.15,2013-04-28 06:15:00,
2013-04-28 02:25:00,55.8,54.4,29.93,West,272,0.0,2.0,95,0.00,,,0.04,Wunderground v.1.15,2013-04-28 06:25:00,
2013-04-28 02:35:00,55.9,54.5,29.92,NW,323,0.0,2.0,95,0.00,,,0.04,Wunderground v.1.15,2013-04-28 06:35:00,
2013-04-28 02:45:00,55.9,54.5,29.92,West,261,1.0,2.0,95,0.00,,,0.04,Wunderground v.1.15,2013-04-28 06:45:00,
2013-04-28 02:55:00,56.1,54.7,29.92,NNW,347,1.0,2.0,95,0.00,,,0.04,Wunderground v.1.15,2013-04-28 06:55:00,
2013-04-28 03:05:00,56.2,54.8,29.92,NNE,25,0.0,2.0,95,0.00,,,0.05,Wunderground v.1.15,2013-04-28 07:05:00,
2013-04-28 03:10:00,56.1,54.7,29.91,East,86,0.0,2.0,95,0.00,,,0.05,Wunderground v.1.15,2013-04-28 07:10:00,
2013-04-28 03:20:00,56.2,54.8,29.91,SW,226,0.0,2.0,95,0.00,,,0.05,Wunderground v.1.15,2013-04-28 07:20:00,
2013-04-28 03:30:00,56.2,54.8,29.91,SW,217,0.0,2.0,95,0.00,,,0.05,Wunderground v.1.15,2013-04-28 07:30:00,
2013-04-28 03:40:00,56.3,54.9,29.91,ESE,114,0.0,2.0,95,0.00,,,0.05,Wunderground v.1.15,2013-04-28 07:40:00,
2013-04-28 03:45:00,56.3,54.9,29.91,NNW,338,1.0,2.0,95,0.00,,,0.05,Wunderground v.1.15,2013-04-28 07:45:00,
2013-04-28 03:55:00,56.4,55.0,29.91,North,360,1.0,2.0,95,0.00,,,0.05,Wunderground v.1.15,2013-04-28 07:55:00,
2013-04-28 04:05:00,56.4,55.0,29.92,WNW,297,0.0,2.0,95,0.00,,,0.05,Wunderground v.1.15,2013-04-28 08:05:00,
2013-04-28 04:15:00,56.4,55.0,29.92,SSE,162,0.0,2.0,95,0.00,,,0.05,Wunderground v.1.15,2013-04-28 08:15:00,
2013-04-28 04:25:00,56.3,54.9,29.92,SSW,208,0.0,2.0,95,0.00,,,0.05,Wunderground v.1.15,2013-04-28 08:25:00,
2013-04-28 04:30:00,56.3,54.9,29.92,SSW,208,0.0,2.0,95,0.00,,,0.05,Wunderground v.1.15,2013-04-28 08:30:00,
2013-04-28 04:40:00,56.3,54.9,29.91,WNW,283,1.0,2.0,95,0.00,,,0.05,Wunderground v.1.15,2013-04-28 08:40:00,
2013-04-28 04:45:00,56.3,54.9,29.90,NE,46,1.0,2.0,95,0.00,,,0.05,Wunderground v.1.15,2013-04-28 08:45:00,
2013-04-28 04:55:00,56.3,54.9,29.91,WNW,283,0.0,2.0,95,0.00,,,0.05,Wunderground v.1.15,2013-04-28 08:55:00,
2013-04-28 05:05:00,56.1,54.7,29.91,NNE,27,0.0,2.0,95,0.00,,,0.05,Wunderground v.1.15,2013-04-28 09:05:00,
2013-04-28 05:15:00,55.9,54.8,29.90,North,352,0.0,2.0,96,0.00,,,0.05,Wunderground v.1.15,2013-04-28 09:15:00,
2013-04-28 05:25:00,55.8,54.7,29.90,North,354,0.0,2.0,96,0.00,,,0.05,Wunderground v.1.15,2013-04-28 09:25:00,
2013-04-28 05:35:00,55.9,54.8,29.90,NW,312,0.0,2.0,96,0.00,,,0.05,Wunderground v.1.15,2013-04-28 09:35:00,
2013-04-28 05:45:00,55.9,55.1,29.89,NW,312,0.0,2.0,97,0.00,,,0.05,Wunderground v.1.15,2013-04-28 09:45:00,
2013-04-28 05:55:00,55.9,55.1,29.88,NW,312,0.0,2.0,97,0.00,,,0.05,Wunderground v.1.15,2013-04-28 09:55:00,
2013-04-28 06:00:00,55.9,55.1,29.88,NW,312,0.0,2.0,97,0.00,,,0.05,Wunderground v.1.15,2013-04-28 10:00:00,
2013-04-28 06:10:00,55.9,55.1,29.89,NW,323,0.0,2.0,97,0.00,,,0.05,Wunderground v.1.15,2013-04-28 10:10:00,
2013-04-28 06:20:00,56.0,54.9,29.89,North,1,0.0,2.0,96,0.00,,,0.05,Wunderground v.1.15,2013-04-28 10:20:00,
2013-04-28 06:30:00,56.0,54.9,29.89,ESE,120,0.0,2.0,96,0.00,,,0.05,Wunderground v.1.15,2013-04-28 10:30:00,
2013-04-28 06:40:00,56.0,54.9,29.89,East,100,0.0,2.0,96,0.00,,,0.05,Wunderground v.1.15,2013-04-28 10:40:00,
2013-04-28 06:50:00,55.8,54.7,29.88,East,100,0.0,2.0,96,0.00,,,0.05,Wunderground v.1.15,2013-04-28 10:50:00,
2013-04-28 07:00:00,55.6,54.5,29.88,WNW,285,0.0,2.0,96,0.00,,,0.05,Wunderground v.1.15,2013-04-28 11:00:00,
2013-04-28 07:10:00,55.5,54.7,29.88,SW,235,0.0,2.0,97,0.00,,,0.05,Wunderground v.1.15,2013-04-28 11:10:00,
2013-04-28 07:15:00,55.4,54.3,29.89,SW,233,0.0,2.0,96,0.00,,,0.05,Wunderground v.1.15,2013-04-28 11:15:00,
2013-04-28 07:25:00,55.7,54.9,29.88,NNW,339,0.0,2.0,97,0.00,,,0.05,Wunderground v.1.15,2013-04-28 11:25:00,
2013-04-28 07:35:00,55.8,55.0,29.88,NNW,339,0.0,2.0,97,0.00,,,0.05,Wunderground v.1.15,2013-04-28 11:35:00,
2013-04-28 07:45:00,55.6,54.5,29.88,NNW,338,0.0,2.0,96,0.00,,,0.05,Wunderground v.1.15,2013-04-28 11:45:00,
2013-04-28 07:55:00,55.5,54.7,29.88,WNW,294,0.0,2.0,97,0.00,,,0.05,Wunderground v.1.15,2013-04-28 11:55:00,
2013-04-28 08:05:00,55.9,55.1,29.89,WNW,293,0.0,2.0,97,0.00,,,0.05,Wunderground v.1.15,2013-04-28 12:05:00,
2013-04-28 08:10:00,56.2,55.4,29.89,WNW,293,0.0,2.0,97,0.00,,,0.06,Wunderground v.1.15,2013-04-28 12:10:00,
2013-04-28 08:20:00,56.4,55.6,29.89,North,349,0.0,2.0,97,0.00,,,0.06,Wunderground v.1.15,2013-04-28 12:20:00,
2013-04-28 08:30:00,56.7,55.6,29.89,SW,222,0.0,2.0,96,0.00,,,0.06,Wunderground v.1.15,2013-04-28 12:30:00,
2013-04-28 08:35:00,56.8,55.7,29.89,SW,222,0.0,2.0,96,0.00,,,0.06,Wunderground v.1.15,2013-04-28 12:35:00,
2013-04-28 08:50:00,58.4,57.0,29.88,WNW,287,0.0,2.0,95,0.00,,,0.06,Wunderground v.1.15,2013-04-28 12:50:00,
2013-04-28 08:55:00,58.8,56.5,29.88,South,184,1.0,2.0,92,0.00,,,0.06,Wunderground v.1.15,2013-04-28 12:55:00,
2013-04-28 09:05:00,60.2,57.3,29.88,SSW,210,1.0,2.0,90,0.00,,,0.06,Wunderground v.1.15,2013-04-28 13:05:00,
2013-04-28 09:10:00,60.3,56.7,29.88,SSW,211,1.0,2.0,88,0.00,,,0.06,Wunderground v.1.15,2013-04-28 13:10:00,
2013-04-28 09:20:00,60.7,57.1,29.88,SE,135,1.0,1.0,88,0.00,,,0.06,Wunderground v.1.15,2013-04-28 13:20:00,
2013-04-28 09:30:00,60.9,57.3,29.89,NNE,16,1.0,2.0,88,0.00,,,0.06,Wunderground v.1.15,2013-04-28 13:30:00,
2013-04-28 09:40:00,61.1,57.2,29.88,SSW,210,0.0,2.0,87,0.00,,,0.06,Wunderground v.1.15,2013-04-28 13:40:00,
2013-04-28 09:50:00,61.2,57.0,29.88,East,101,1.0,1.0,86,0.00,,,0.06,Wunderground v.1.15,2013-04-28 13:50:00,
2013-04-28 10:00:00,61.0,56.5,29.88,SSE,164,1.0,2.0,85,0.00,,,0.06,Wunderground v.1.15,2013-04-28 14:00:00,
2013-04-28 10:10:00,60.7,56.5,29.88,SSW,213,0.0,2.0,86,0.00,,,0.06,Wunderground v.1.15,2013-04-28 14:10:00,
2013-04-28 10:20:00,60.9,57.0,29.88,South,191,0.0,2.0,87,0.00,,,0.06,Wunderground v.1.15,2013-04-28 14:20:00,
2013-04-28 10:30:00,60.9,56.4,29.88,SSE,152,1.0,1.0,85,0.00,,,0.06,Wunderground v.1.15,2013-04-28 14:30:00,
2013-04-28 10:35:00,60.9,56.4,29.89,ESE,114,1.0,2.0,85,0.00,,,0.06,Wunderground v.1.15,2013-04-28 14:35:00,
2013-04-28 10:45:00,61.0,56.5,29.88,ESE,110,0.0,2.0,85,0.00,,,0.06,Wunderground v.1.15,2013-04-28 14:45:00,
2013-04-28 10:55:00,61.0,57.1,29.89,SSW,205,0.0,2.0,87,0.00,,,0.06,Wunderground v.1.15,2013-04-28 14:55:00,
2013-04-28 11:05:00,61.0,57.4,29.89,South,183,1.0,2.0,88,0.00,,,0.06,Wunderground v.1.15,2013-04-28 15:05:00,
2013-04-28 11:10:00,60.9,57.0,29.89,South,169,0.0,2.0,87,0.00,,,0.06,Wunderground v.1.15,2013-04-28 15:10:00,
2013-04-28 11:20:00,60.7,57.1,29.89,SW,215,1.0,2.0,88,0.00,,,0.06,Wunderground v.1.15,2013-04-28 15:20:00,
2013-04-28 11:30:00,60.5,57.6,29.89,SSE,160,1.0,2.0,90,0.00,,,0.07,Wunderground v.1.15,2013-04-28 15:30:00,
2013-04-28 11:40:00,60.3,57.4,29.88,SW,219,1.0,1.0,90,0.07,,,0.08,Wunderground v.1.15,2013-04-28 15:40:00,
2013-04-28 11:45:00,60.1,57.5,29.88,SSW,207,1.0,2.0,91,0.10,,,0.09,Wunderground v.1.15,2013-04-28 15:45:00,
2013-04-28 11:50:00,60.1,57.8,29.88,South,191,1.0,1.0,92,0.12,,,0.10,Wunderground v.1.15,2013-04-28 15:50:00,
2013-04-28 12:00:00,59.9,57.9,29.88,SW,222,0.0,2.0,93,0.09,,,0.11,Wunderground v.1.15,2013-04-28 16:00:00,
2013-04-28 12:10:00,59.6,57.9,29.88,ENE,68,0.0,2.0,94,0.04,,,0.11,Wunderground v.1.15,2013-04-28 16:10:00,
2013-04-28 12:15:00,59.5,57.8,29.87,NW,315,0.0,2.0,94,0.00,,,0.11,Wunderground v.1.15,2013-04-28 16:15:00,
2013-04-28 12:25:00,59.6,57.9,29.87,East,101,0.0,2.0,94,0.00,,,0.12,Wunderground v.1.15,2013-04-28 16:25:00,
2013-04-28 12:30:00,59.9,58.5,29.87,ESE,102,0.0,2.0,95,0.00,,,0.12,Wunderground v.1.15,2013-04-28 16:30:00,
2013-04-28 12:40:00,60.5,59.1,29.87,East,100,0.0,2.0,95,0.00,,,0.12,Wunderground v.1.15,2013-04-28 16:40:00,
2013-04-28 12:45:00,60.6,58.9,29.87,East,101,0.0,2.0,94,0.00,,,0.12,Wunderground v.1.15,2013-04-28 16:45:00,
2013-04-28 12:55:00,61.4,59.4,29.86,NW,323,0.0,2.0,93,0.00,,,0.12,Wunderground v.1.15,2013-04-28 16:55:00,
2013-04-28 13:00:00,61.7,59.7,29.86,NNW,347,0.0,2.0,93,0.00,,,0.12,Wunderground v.1.15,2013-04-28 17:00:00,
2013-04-28 13:10:00,62.8,60.7,29.85,NNE,13,0.0,2.0,93,0.00,,,0.13,Wunderground v.1.15,2013-04-28 17:10:00,
2013-04-28 13:15:00,63.8,60.8,29.85,SSW,212,1.0,2.0,90,0.00,,,0.13,Wunderground v.1.15,2013-04-28 17:15:00,
2013-04-28 13:25:00,65.1,61.5,29.84,SSW,208,1.0,2.0,88,0.00,,,0.13,Wunderground v.1.15,2013-04-28 17:25:00,
2013-04-28 13:35:00,66.9,62.6,29.84,SSW,195,1.0,3.0,86,0.00,,,0.13,Wunderground v.1.15,2013-04-28 17:35:00,
2013-04-28 13:45:00,68.0,63.0,29.83,SSW,200,2.0,2.0,84,0.00,,,0.13,Wunderground v.1.15,2013-04-28 17:45:00,
2013-04-28 13:50:00,68.4,63.0,29.83,WSW,243,2.0,2.0,83,0.00,,,0.13,Wunderground v.1.15,2013-04-28 17:50:00,
2013-04-28 14:00:00,68.1,62.4,29.83,East,98,2.0,3.0,82,0.00,,,0.13,Wunderground v.1.15,2013-04-28 18:00:00,
2013-04-28 14:10:00,67.8,62.1,29.82,SSW,198,1.0,2.0,82,0.00,,,0.13,Wunderground v.1.15,2013-04-28 18:10:00,
2013-04-28 14:20:00,67.9,61.9,29.82,SSW,211,1.0,1.0,81,0.00,,,0.13,Wunderground v.1.15,2013-04-28 18:20:00,
2013-04-28 14:30:00,68.4,61.6,29.82,SSW,201,1.0,3.0,79,0.00,,,0.13,Wunderground v.1.15,2013-04-28 18:30:00,
2013-04-28 14:40:00,68.9,62.1,29.81,SSW,208,1.0,2.0,79,0.00,,,0.13,Wunderground v.1.15,2013-04-28 18:40:00,
2013-04-28 14:50:00,69.3,60.3,29.81,SW,214,3.0,7.0,73,0.00,,,0.13,Wunderground v.1.15,2013-04-28 18:50:00,
2013-04-28 15:00:00,69.2,61.3,29.81,South,172,4.0,4.0,76,0.00,,,0.13,Wunderground v.1.15,2013-04-28 19:00:00,
2013-04-28 15:10:00,69.0,59.2,29.81,SSE,163,4.0,4.0,71,0.00,,,0.13,Wunderground v.1.15,2013-04-28 19:10:00,
2013-04-28 15:20:00,68.1,60.6,29.81,WSW,252,4.0,4.0,77,0.00,,,0.13,Wunderground v.1.15,2013-04-28 19:20:00,
2013-04-28 15:25:00,68.2,60.7,29.81,WNW,290,3.0,4.0,77,0.00,,,0.13,Wunderground v.1.15,2013-04-28 19:25:00,
2013-04-28 15:35:00,69.2,59.8,29.80,SW,231,3.0,3.0,72,0.00,,,0.13,Wunderground v.1.15,2013-04-28 19:35:00,
2013-04-28 15:45:00,69.6,59.4,29.80,WSW,237,3.0,4.0,70,0.00,,,0.13,Wunderground v.1.15,2013-04-28 19:45:00,
2013-04-28 15:55:00,70.7,60.8,29.80,South,186,4.0,6.0,71,0.00,,,0.13,Wunderground v.1.15,2013-04-28 19:55:00,
2013-04-28 16:00:00,70.9,60.2,29.79,ESE,103,4.0,6.0,69,0.00,,,0.13,Wunderground v.1.15,2013-04-28 20:00:00,
2013-04-28 16:10:00,70.7,60.4,29.79,SW,214,4.0,4.0,70,0.00,,,0.13,Wunderground v.1.15,2013-04-28 20:10:00,
2013-04-28 16:15:00,70.3,59.2,29.79,South,178,4.0,4.0,68,0.00,,,0.13,Wunderground v.1.15,2013-04-28 20:15:00,
2013-04-28 16:25:00,69.0,59.2,29.79,ESE,120,4.0,6.0,71,0.00,,,0.13,Wunderground v.1.15,2013-04-28 20:25:00,
2013-04-28 16:30:00,68.0,57.8,29.79,SE,141,3.0,3.0,70,0.00,,,0.13,Wunderground v.1.15,2013-04-28 20:30:00,
2013-04-28 16:40:00,66.5,59.1,29.79,SSW,207,2.0,2.0,77,0.00,,,0.13,Wunderground v.1.15,2013-04-28 20:40:00,
2013-04-28 16:45:00,66.3,58.9,29.79,SSE,160,2.0,2.0,77,0.00,,,0.13,Wunderground v.1.15,2013-04-28 20:45:00,
2013-04-28 16:55:00,66.4,59.3,29.79,SSW,197,1.0,2.0,78,0.00,,,0.13,Wunderground v.1.15,2013-04-28 20:55:00,
2013-04-28 17:00:00,66.5,59.8,29.79,SE,132,1.0,2.0,79,0.00,,,0.13,Wunderground v.1.15,2013-04-28 21:00:00,
2013-04-28 17:10:00,66.4,60.0,29.79,East,100,1.0,2.0,80,0.00,,,0.13,Wunderground v.1.15,2013-04-28 21:10:00,
2013-04-28 17:15:00,66.4,60.7,29.79,SW,222,1.0,2.0,82,0.00,,,0.13,Wunderground v.1.15,2013-04-28 21:15:00,
2013-04-28 17:25:00,66.8,60.8,29.79,South,186,1.0,2.0,81,0.00,,,0.13,Wunderground v.1.15,2013-04-28 21:25:00,
2013-04-28 17:35:00,67.7,60.6,29.79,South,171,2.0,3.0,78,0.00,,,0.13,Wunderground v.1.15,2013-04-28 21:35:00,
2013-04-28 17:40:00,67.2,60.1,29.79,West,276,2.0,2.0,78,0.00,,,0.13,Wunderground v.1.15,2013-04-28 21:40:00,
2013-04-28 17:50:00,67.2,59.7,29.80,SW,226,2.0,2.0,77,0.00,,,0.13,Wunderground v.1.15,2013-04-28 21:50:00,
2013-04-28 17:55:00,67.1,59.6,29.80,SE,138,1.0,2.0,77,0.00,,,0.13,Wunderground v.1.15,2013-04-28 21:55:00,
2013-04-28 18:05:00,66.6,59.5,29.80,SSE,150,1.0,3.0,78,0.00,,,0.13,Wunderground v.1.15,2013-04-28 22:05:00,
2013-04-28 18:15:00,65.6,58.6,29.81,SW,222,2.0,3.0,78,0.00,,,0.13,Wunderground v.1.15,2013-04-28 22:15:00,
2013-04-28 18:25:00,65.1,58.4,29.81,South,180,1.0,2.0,79,0.00,,,0.13,Wunderground v.1.15,2013-04-28 22:25:00,
2013-04-28 18:35:00,64.7,58.7,29.81,SE,132,1.0,2.0,81,0.00,,,0.13,Wunderground v.1.15,2013-04-28 22:35:00,
2013-04-28 18:40:00,64.7,59.1,29.81,ENE,72,0.0,2.0,82,0.00,,,0.13,Wunderground v.1.15,2013-04-28 22:40:00,
2013-04-28 18:50:00,65.1,58.8,29.81,SSE,166,1.0,2.0,80,0.00,,,0.13,Wunderground v.1.15,2013-04-28 22:50:00,
2013-04-28 18:55:00,65.5,59.2,29.81,SW,214,1.0,2.0,80,0.00,,,0.13,Wunderground v.1.15,2013-04-28 22:55:00,
2013-04-28 19:05:00,65.6,58.2,29.81,SE,127,1.0,2.0,77,0.00,,,0.13,Wunderground v.1.15,2013-04-28 23:05:00,
2013-04-28 19:15:00,64.9,58.9,29.82,South,180,1.0,2.0,81,0.00,,,0.13,Wunderground v.1.15,2013-04-28 23:15:00,
2013-04-28 19:25:00,64.3,57.6,29.82,SSW,207,1.0,3.0,79,0.00,,,0.13,Wunderground v.1.15,2013-04-28 23:25:00,
2013-04-28 19:30:00,64.1,58.8,29.82,WSW,242,1.0,1.0,83,0.00,,,0.13,Wunderground v.1.15,2013-04-28 23:30:00,
2013-04-28 19:40:00,63.5,59.2,29.82,WSW,246,0.0,2.0,86,0.00,,,0.13,Wunderground v.1.15,2013-04-28 23:40:00,
2013-04-28 19:45:00,63.2,59.6,29.82,WSW,245,0.0,2.0,88,0.00,,,0.13,Wunderground v.1.15,2013-04-28 23:45:00,
2013-04-28 19:55:00,62.3,58.7,29.81,West,260,0.0,2.0,88,0.00,,,0.13,Wunderground v.1.15,2013-04-28 23:55:00,
2013-04-28 20:05:00,61.9,58.6,29.82,WNW,285,0.0,2.0,89,0.00,,,0.13,Wunderground v.1.15,2013-04-29 00:05:00,
2013-04-28 20:15:00,61.3,58.3,29.82,WNW,285,0.0,2.0,90,0.00,,,0.13,Wunderground v.1.15,2013-04-29 00:15:00,
2013-04-28 20:25:00,60.8,57.8,29.82,WNW,287,1.0,2.0,90,0.00,,,0.13,Wunderground v.1.15,2013-04-29 00:25:00,
2013-04-28 20:35:00,60.0,57.4,29.82,WNW,287,0.0,2.0,91,0.00,,,0.13,Wunderground v.1.15,2013-04-29 00:35:00,
2013-04-28 20:45:00,59.3,57.0,29.83,WNW,287,0.0,2.0,92,0.00,,,0.13,Wunderground v.1.15,2013-04-29 00:45:00,
2013-04-28 20:50:00,59.0,56.7,29.83,WNW,287,0.0,2.0,92,0.00,,,0.13,Wunderground v.1.15,2013-04-29 00:50:00,
2013-04-28 21:00:00,58.7,56.7,29.84,WNW,287,0.0,2.0,93,0.00,,,0.13,Wunderground v.1.15,2013-04-29 01:00:00,
2013-04-28 21:05:00,58.5,56.5,29.84,WNW,287,0.0,2.0,93,0.00,,,0.13,Wunderground v.1.15,2013-04-29 01:05:00,
2013-04-28 21:10:00,58.2,56.2,29.84,WNW,287,0.0,2.0,93,0.00,,,0.13,Wunderground v.1.15,2013-04-29 01:10:00,
2013-04-28 21:20:00,57.4,55.4,29.84,WNW,287,0.0,2.0,93,0.00,,,0.13,Wunderground v.1.15,2013-04-29 01:20:00,
2013-04-28 21:25:00,57.1,55.4,29.85,WNW,287,0.0,2.0,94,0.00,,,0.13,Wunderground v.1.15,2013-04-29 01:25:00,
2013-04-28 21:30:00,57.0,55.6,29.85,WNW,287,0.0,2.0,95,0.00,,,0.13,Wunderground v.1.15,2013-04-29 01:30:00,
2013-04-28 21:40:00,56.8,55.7,29.86,WNW,287,0.0,2.0,96,0.00,,,0.13,Wunderground v.1.15,2013-04-29 01:40:00,
2013-04-28 21:45:00,57.1,56.0,29.85,WNW,287,0.0,2.0,96,0.00,,,0.13,Wunderground v.1.15,2013-04-29 01:45:00,
2013-04-28 21:50:00,57.2,56.1,29.86,WNW,287,0.0,2.0,96,0.00,,,0.13,Wunderground v.1.15,2013-04-29 01:50:00,
2013-04-28 22:00:00,57.1,56.0,29.86,WNW,287,0.0,2.0,96,0.00,,,0.13,Wunderground v.1.15,2013-04-29 02:00:00,
2013-04-28 22:10:00,56.6,55.2,29.86,WNW,287,0.0,2.0,95,0.00,,,0.13,Wunderground v.1.15,2013-04-29 02:10:00,
2013-04-28 22:20:00,55.8,54.4,29.86,WNW,287,0.0,2.0,95,0.00,,,0.13,Wunderground v.1.15,2013-04-29 02:20:00,
2013-04-28 22:30:00,55.3,54.2,29.87,WNW,287,0.0,2.0,96,0.00,,,0.13,Wunderground v.1.15,2013-04-29 02:30:00,
2013-04-28 22:40:00,54.8,53.7,29.87,WNW,287,0.0,2.0,96,0.00,,,0.13,Wunderground v.1.15,2013-04-29 02:40:00,
2013-04-28 22:50:00,54.4,53.3,29.87,WNW,287,0.0,2.0,96,0.00,,,0.13,Wunderground v.1.15,2013-04-29 02:50:00,
2013-04-28 23:00:00,54.1,53.3,29.87,WNW,287,0.0,2.0,97,0.00,,,0.13,Wunderground v.1.15,2013-04-29 03:00:00,
2013-04-28 23:05:00,54.0,53.2,29.87,WNW,287,0.0,2.0,97,0.00,,,0.13,Wunderground v.1.15,2013-04-29 03:05:00,
2013-04-28 23:15:00,54.0,53.2,29.87,WNW,287,0.0,2.0,97,0.00,,,0.13,Wunderground v.1.15,2013-04-29 03:15:00,
2013-04-28 23:20:00,54.0,53.2,29.87,WNW,287,0.0,2.0,97,0.00,,,0.13,Wunderground v.1.15,2013-04-29 03:20:00,
2013-04-28 23:30:00,54.1,53.3,29.86,WNW,287,0.0,2.0,97,0.00,,,0.13,Wunderground v.1.15,2013-04-29 03:30:00,
2013-04-28 23:40:00,53.8,53.0,29.86,WNW,291,0.0,2.0,97,0.00,,,0.13,Wunderground v.1.15,2013-04-29 03:40:00,
2013-04-28 23:50:00,53.6,52.8,29.86,WNW,291,0.0,2.0,97,0.00,,,0.13,Wunderground v.1.15,2013-04-29 03:50:00,